Time;durP1;ratioP1;P1;durP2;ratioP2;P2;SDS_P1;SDS_P2;PMS_P1;PMS_P2;Temp;Humidity;BMP_temperature;BMP_pressure;BME280_temperature;BME280_humidity;BME280_pressure;Samples;Min_cycle;Max_cycle;Signal;HPM_P1;HPM_P2
2022/05/17 00:00:06;;;;;;;10.67;3.53;;;20.10;60.20;;;;;;5089285;28;20200;-88
2022/05/17 00:02:31;;;;;;;5.18;3.85;;;20.10;60.20;;;;;;5081218;28;20405;-89
2022/05/17 00:04:57;;;;;;;8.03;3.63;;;20.10;60.90;;;;;;5084814;28;20176;-89
2022/05/17 00:07:23;;;;;;;5.40;3.20;;;20.10;60.90;;;;;;5096446;28;20251;-89
2022/05/17 00:09:48;;;;;;;7.37;3.30;;;20.10;60.80;;;;;;5089047;28;20176;-89
2022/05/17 00:12:17;;;;;;;8.20;3.47;;;20.10;61.10;;;;;;5082479;28;20340;-88
2022/05/17 00:14:43;;;;;;;8.30;3.50;;;20.20;60.00;;;;;;5098638;28;20183;-89
2022/05/17 00:17:09;;;;;;;10.03;3.40;;;20.30;59.30;;;;;;5085398;28;20761;-88
2022/05/17 00:19:35;;;;;;;7.17;2.80;;;20.20;59.10;;;;;;5078661;28;20638;-89
2022/05/17 00:22:01;;;;;;;4.83;3.10;;;20.20;59.40;;;;;;5085301;28;20418;-88
2022/05/17 00:24:27;;;;;;;5.90;3.10;;;20.10;59.90;;;;;;5093568;28;20417;-89
2022/05/17 00:26:53;;;;;;;6.90;3.37;;;20.00;60.50;;;;;;5115354;28;20199;-88
2022/05/17 00:29:19;;;;;;;4.80;2.50;;;20.00;60.70;;;;;;5078670;28;20795;-88
2022/05/17 00:31:45;;;;;;;5.50;3.30;;;20.00;60.60;;;;;;5112049;28;20424;-88
2022/05/17 00:34:11;;;;;;;6.90;3.10;;;20.00;60.60;;;;;;5098508;28;20405;-88
2022/05/17 00:36:37;;;;;;;4.67;2.80;;;20.00;60.60;;;;;;5082061;28;20211;-89
2022/05/17 00:39:03;;;;;;;5.13;2.80;;;19.90;60.90;;;;;;5088725;28;20243;-88
2022/05/17 00:41:28;;;;;;;7.27;3.30;;;19.90;61.10;;;;;;5081562;28;20266;-88
2022/05/17 00:47:01;;;;;;;4.87;2.83;;;19.90;61.10;;;;;;5094574;28;20206;-88
2022/05/17 00:49:39;;;;;;;8.48;2.67;;;19.90;61.30;;;;;;5116475;28;20409;-88
2022/05/17 00:52:09;;;;;;;4.55;3.60;;;19.90;61.60;;;;;;5098315;28;20178;-90
2022/05/17 00:54:36;;;;;;;9.65;3.75;;;19.80;61.90;;;;;;5064291;28;20676;-88
2022/05/17 00:57:09;;;;;;;8.47;2.20;;;19.80;61.90;;;;;;5092049;28;20223;-88
2022/05/17 00:59:37;;;;;;;8.10;3.05;;;19.80;62.10;;;;;;5096789;28;20444;-88
2022/05/17 01:02:06;;;;;;;6.55;3.00;;;19.80;62.30;;;;;;5103724;28;20859;-88
2022/05/17 01:04:39;;;;;;;6.38;3.08;;;19.80;62.30;;;;;;5104464;28;20195;-88
2022/05/17 01:07:13;;;;;;;8.33;3.00;;;19.80;61.80;;;;;;5087086;28;20212;-88
2022/05/17 01:09:39;;;;;;;6.38;3.10;;;19.80;61.90;;;;;;5086362;28;20488;-88
2022/05/17 01:12:06;;;;;;;8.50;3.57;;;19.80;62.60;;;;;;5082505;28;20204;-89
2022/05/17 01:17:16;;;;;;;5.60;2.75;;;19.70;62.50;;;;;;5095937;28;20210;-88
2022/05/17 01:19:43;;;;;;;9.97;3.07;;;19.80;62.40;;;;;;5100470;28;20203;-88
2022/05/17 01:22:10;;;;;;;6.38;3.10;;;19.80;62.00;;;;;;5083906;28;20568;-88
2022/05/17 01:25:03;;;;;;;14.23;3.20;;;19.70;62.20;;;;;;5078142;28;20176;-88
2022/05/17 01:27:39;;;;;;;7.65;3.45;;;19.70;61.80;;;;;;5101400;28;20207;-88
2022/05/17 01:30:06;;;;;;;5.82;3.05;;;19.70;62.20;;;;;;5062238;28;20211;-88
2022/05/17 01:32:33;;;;;;;5.38;3.10;;;19.70;62.00;;;;;;5092084;28;20175;-88
2022/05/17 01:34:59;;;;;;;6.22;3.38;;;19.70;61.90;;;;;;5106771;28;20176;-90
2022/05/17 01:37:25;;;;;;;7.07;3.25;;;19.80;61.20;;;;;;5093572;28;20202;-88
2022/05/17 01:39:51;;;;;;;5.70;2.90;;;19.70;61.90;;;;;;5098833;28;20211;-88
2022/05/17 01:42:16;;;;;;;5.63;3.53;;;19.60;62.50;;;;;;5087805;28;20179;-88
2022/05/17 01:44:44;;;;;;;7.97;2.90;;;19.50;63.30;;;;;;5103293;28;20186;-88
2022/05/17 01:47:18;;;;;;;7.97;3.47;;;19.40;63.40;;;;;;5101896;28;20223;-89
2022/05/17 01:49:43;;;;;;;6.00;3.13;;;19.40;63.90;;;;;;5108873;28;20175;-88
2022/05/17 01:52:10;;;;;;;9.57;3.10;;;19.40;63.80;;;;;;5110212;28;20167;-89
2022/05/17 01:54:36;;;;;;;4.78;2.92;;;19.40;63.80;;;;;;5098519;28;20171;-89
2022/05/17 01:57:02;;;;;;;5.90;2.73;;;19.40;64.00;;;;;;5089130;28;20305;-89
2022/05/17 01:59:27;;;;;;;6.77;2.80;;;19.40;63.90;;;;;;5107114;28;20202;-90
2022/05/17 02:01:56;;;;;;;7.90;3.47;;;19.40;63.80;;;;;;5093035;28;20417;-90
2022/05/17 02:04:22;;;;;;;9.80;3.45;;;19.40;63.60;;;;;;5095639;28;20687;-90
2022/05/17 02:06:47;;;;;;;14.23;3.33;;;19.40;64.00;;;;;;5086318;28;20238;-89
2022/05/17 02:09:13;;;;;;;8.50;3.13;;;19.30;64.30;;;;;;5079764;28;20627;-89
2022/05/17 02:11:39;;;;;;;7.80;3.40;;;19.40;64.50;;;;;;5108412;28;20228;-89
2022/05/17 02:14:05;;;;;;;7.30;3.00;;;19.40;64.00;;;;;;5094710;28;20176;-89
2022/05/17 02:16:35;;;;;;;6.27;3.37;;;19.30;64.00;;;;;;5097203;28;20969;-89
2022/05/17 02:19:00;;;;;;;6.63;2.80;;;19.40;63.50;;;;;;5096073;28;20426;-89
2022/05/17 02:21:26;;;;;;;7.07;3.63;;;19.40;63.30;;;;;;5077776;28;20179;-89
2022/05/17 02:23:52;;;;;;;4.77;3.10;;;19.30;63.60;;;;;;5079021;28;20190;-90
2022/05/17 02:26:17;;;;;;;6.80;3.27;;;19.30;64.20;;;;;;5108657;28;20172;-89
2022/05/17 02:28:43;;;;;;;4.57;3.00;;;19.30;64.10;;;;;;5099181;28;20175;-89
2022/05/17 02:31:15;;;;;;;3.42;2.92;;;19.30;64.10;;;;;;5100797;28;20186;-89
2022/05/17 02:33:41;;;;;;;4.30;3.20;;;19.20;64.10;;;;;;5081179;28;20180;-89
2022/05/17 02:36:38;;;;;;;6.78;3.30;;;19.20;64.10;;;;;;5086493;28;20181;-88
2022/05/17 02:39:04;;;;;;;8.20;2.90;;;19.30;64.10;;;;;;5105530;28;20168;-89
2022/05/17 02:41:30;;;;;;;5.07;2.83;;;19.30;64.60;;;;;;5083472;28;20263;-89
2022/05/17 02:43:55;;;;;;;5.30;3.10;;;19.30;64.20;;;;;;5093422;28;20765;-89
2022/05/17 02:46:21;;;;;;;8.57;3.57;;;19.30;64.00;;;;;;5087706;28;20172;-89
2022/05/17 02:48:47;;;;;;;5.63;3.07;;;19.30;64.20;;;;;;5083725;28;20183;-88
2022/05/17 02:51:16;;;;;;;3.53;2.57;;;19.30;64.00;;;;;;5108934;28;20176;-89
2022/05/17 02:53:42;;;;;;;6.18;3.55;;;19.30;64.20;;;;;;5077436;28;20248;-89
2022/05/17 02:56:08;;;;;;;9.52;3.50;;;19.40;63.80;;;;;;5112735;28;20183;-89
2022/05/17 02:58:40;;;;;;;11.90;4.50;;;19.50;64.30;;;;;;5102427;28;20266;-89
2022/05/17 03:01:07;;;;;;;9.75;4.40;;;19.60;63.10;;;;;;5093153;28;20242;-89
2022/05/17 03:03:39;;;;;;;6.10;4.07;;;19.60;62.80;;;;;;5083440;28;20606;-89
2022/05/17 03:06:06;;;;;;;13.35;4.05;;;19.50;62.90;;;;;;5100008;28;20607;-89
2022/05/17 03:08:31;;;;;;;9.32;3.78;;;19.50;63.00;;;;;;5101720;28;20214;-89
2022/05/17 03:10:57;;;;;;;4.33;3.47;;;19.40;63.00;;;;;;5086641;28;20180;-89
2022/05/17 03:13:23;;;;;;;5.57;3.80;;;19.40;63.10;;;;;;5088625;28;20433;-88
2022/05/17 03:15:53;;;;;;;6.20;4.13;;;19.30;63.60;;;;;;5110595;28;20179;-89
2022/05/17 03:18:19;;;;;;;9.13;4.15;;;19.20;63.90;;;;;;5100103;28;20203;-89
2022/05/17 03:20:47;;;;;;;8.00;3.97;;;19.20;64.00;;;;;;5107446;28;20204;-90
2022/05/17 03:23:12;;;;;;;6.70;3.80;;;19.30;64.20;;;;;;5089832;28;20509;-89
2022/05/17 03:25:38;;;;;;;7.90;4.00;;;19.30;65.30;;;;;;5107636;28;20184;-89
2022/05/17 03:28:04;;;;;;;7.60;3.97;;;19.20;66.20;;;;;;5084979;28;20210;-88
2022/05/17 03:30:30;;;;;;;9.03;3.63;;;19.10;67.40;;;;;;5089034;28;20289;-89
2022/05/17 03:32:56;;;;;;;6.35;3.92;;;19.00;68.50;;;;;;5095335;28;20436;-89
2022/05/17 03:35:22;;;;;;;5.25;3.67;;;19.00;67.80;;;;;;5106301;28;20184;-88
2022/05/17 03:37:48;;;;;;;10.07;4.07;;;18.90;67.60;;;;;;5118262;28;20209;-88
2022/05/17 03:40:14;;;;;;;6.63;4.00;;;18.90;68.40;;;;;;5110582;28;20465;-88
2022/05/17 03:42:40;;;;;;;6.55;3.70;;;18.80;68.20;;;;;;5108274;28;20608;-88
2022/05/17 03:45:07;;;;;;;7.63;4.03;;;18.80;68.30;;;;;;5093131;28;20175;-88
2022/05/17 03:47:33;;;;;;;8.02;3.58;;;18.80;67.90;;;;;;5116617;28;20200;-88
2022/05/17 03:49:59;;;;;;;10.18;4.47;;;18.80;67.70;;;;;;5087109;28;20180;-89
2022/05/17 03:52:26;;;;;;;9.53;4.03;;;18.90;67.20;;;;;;5095995;28;20178;-89
2022/05/17 03:54:56;;;;;;;7.05;3.92;;;18.90;66.70;;;;;;5087694;28;20182;-88
2022/05/17 03:57:26;;;;;;;10.73;4.07;;;18.90;66.90;;;;;;5113520;28;20260;-87
2022/05/17 03:59:53;;;;;;;8.45;3.60;;;19.00;67.00;;;;;;5082391;28;20203;-87
2022/05/17 04:02:19;;;;;;;7.05;3.53;;;19.00;66.80;;;;;;5093378;28;20651;-88
2022/05/17 04:04:45;;;;;;;12.40;3.72;;;19.00;66.80;;;;;;5080732;28;20678;-88
2022/05/17 04:07:11;;;;;;;15.50;5.57;;;19.10;66.20;;;;;;5090084;28;20207;-88
2022/05/17 04:09:37;;;;;;;14.55;5.28;;;19.20;65.60;;;;;;5108925;28;20468;-88
2022/05/17 04:12:04;;;;;;;8.30;3.40;;;19.20;65.70;;;;;;5098622;28;20569;-88
2022/05/17 04:14:30;;;;;;;6.57;3.80;;;19.20;65.90;;;;;;5092874;28;20182;-88
2022/05/17 04:16:56;;;;;;;8.45;4.65;;;19.20;66.10;;;;;;5099065;28;20202;-88
2022/05/17 04:19:22;;;;;;;10.07;4.47;;;19.20;66.90;;;;;;5067349;28;20180;-87
2022/05/17 04:21:48;;;;;;;11.23;4.05;;;19.10;67.00;;;;;;5081020;28;20423;-88
2022/05/17 04:24:14;;;;;;;10.80;4.60;;;19.10;67.10;;;;;;5101071;28;20171;-87
2022/05/17 04:26:41;;;;;;;10.32;4.57;;;19.10;67.10;;;;;;5090495;28;20193;-87
2022/05/17 04:29:08;;;;;;;8.73;4.30;;;19.10;66.60;;;;;;5117806;28;20175;-86
2022/05/17 04:31:36;;;;;;;10.88;3.65;;;19.10;66.60;;;;;;5102180;28;20171;-87
2022/05/17 04:34:03;;;;;;;7.82;3.63;;;19.20;66.20;;;;;;5099204;28;20206;-87
2022/05/17 04:36:29;;;;;;;10.15;4.40;;;19.20;66.40;;;;;;5091373;28;20246;-87
2022/05/17 04:38:55;;;;;;;8.40;4.53;;;19.20;67.30;;;;;;5102851;28;20546;-88
2022/05/17 04:41:21;;;;;;;9.93;4.60;;;19.20;67.70;;;;;;5105243;28;20203;-87
2022/05/17 04:43:47;;;;;;;7.73;4.93;;;19.20;67.70;;;;;;5105928;28;20417;-86
2022/05/17 04:46:13;;;;;;;5.70;4.50;;;19.00;69.30;;;;;;5097617;28;20190;-87
2022/05/17 04:48:39;;;;;;;9.48;4.50;;;18.90;69.30;;;;;;5078424;28;20172;-87
2022/05/17 04:51:10;;;;;;;7.45;4.30;;;18.90;70.10;;;;;;5092260;28;20179;-88
2022/05/17 04:53:38;;;;;;;12.05;4.80;;;18.80;70.90;;;;;;5088349;28;20233;-87
2022/05/17 04:56:05;;;;;;;11.57;4.53;;;18.80;70.30;;;;;;5096130;28;20175;-88
2022/05/17 04:58:32;;;;;;;7.30;3.80;;;18.80;70.00;;;;;;5101086;28;20552;-87
2022/05/17 05:00:58;;;;;;;11.25;4.95;;;18.90;69.00;;;;;;5108465;28;20198;-88
2022/05/17 05:03:47;;;;;;;5.90;4.17;;;18.90;68.70;;;;;;5086696;28;20179;-88
2022/05/17 05:06:12;;;;;;;7.63;4.65;;;18.90;68.70;;;;;;5078196;28;20500;-88
2022/05/17 05:08:38;;;;;;;9.90;5.50;;;19.00;68.20;;;;;;5092935;28;20237;-89
2022/05/17 05:11:05;;;;;;;9.00;4.10;;;19.10;67.90;;;;;;5105006;28;20179;-90
2022/05/17 05:13:31;;;;;;;7.30;3.78;;;19.10;69.00;;;;;;5106771;28;20434;-90
2022/05/17 05:15:57;;;;;;;9.35;4.15;;;19.00;68.40;;;;;;5097201;28;20187;-88
2022/05/17 05:18:23;;;;;;;6.17;3.87;;;19.00;68.50;;;;;;5084747;28;20195;-89
2022/05/17 05:20:49;;;;;;;9.20;3.80;;;19.10;67.70;;;;;;5080882;28;20271;-89
2022/05/17 05:23:17;;;;;;;6.83;3.67;;;19.10;66.80;;;;;;5092411;28;20246;-88
2022/05/17 05:25:42;;;;;;;9.45;3.28;;;19.20;66.20;;;;;;5099081;28;20917;-90
2022/05/17 05:28:09;;;;;;;11.20;4.67;;;19.20;66.00;;;;;;5113626;28;20202;-89
2022/05/17 05:30:36;;;;;;;7.28;3.40;;;19.20;65.90;;;;;;5103500;28;20184;-90
2022/05/17 05:33:02;;;;;;;9.73;3.80;;;19.20;65.80;;;;;;5101638;28;20271;-89
2022/05/17 05:35:28;;;;;;;5.43;3.60;;;19.30;65.50;;;;;;5088032;28;20426;-87
2022/05/17 05:37:54;;;;;;;11.50;4.05;;;19.20;65.50;;;;;;5098120;28;20205;-87
2022/05/17 05:40:21;;;;;;;9.13;3.70;;;19.30;65.40;;;;;;5099785;28;20207;-88
2022/05/17 05:42:50;;;;;;;5.68;2.70;;;19.30;65.00;;;;;;5085720;28;20180;-89
2022/05/17 05:45:18;;;;;;;8.93;3.20;;;19.30;65.10;;;;;;5090268;28;20236;-88
2022/05/17 05:47:43;;;;;;;9.65;3.25;;;19.20;65.40;;;;;;5112306;28;20204;-88
2022/05/17 05:50:10;;;;;;;9.90;3.60;;;19.30;65.30;;;;;;5103205;28;20184;-88
2022/05/17 05:52:36;;;;;;;6.43;3.20;;;19.30;65.20;;;;;;5093337;28;20172;-88
2022/05/17 05:55:02;;;;;;;8.00;4.00;;;19.30;65.20;;;;;;5084539;28;20647;-88
2022/05/17 05:57:28;;;;;;;9.37;3.13;;;19.30;65.00;;;;;;5085073;28;20687;-88
2022/05/17 05:59:54;;;;;;;9.98;4.50;;;19.30;65.00;;;;;;5100813;28;20449;-88
2022/05/17 06:02:20;;;;;;;10.70;3.47;;;19.30;64.50;;;;;;5085049;28;20191;-88
2022/05/17 06:04:46;;;;;;;9.00;4.10;;;19.30;64.30;;;;;;5078023;28;20522;-87
2022/05/17 06:07:11;;;;;;;8.77;4.00;;;19.40;63.80;;;;;;5084652;28;20210;-88
2022/05/17 06:09:37;;;;;;;6.30;3.67;;;19.40;63.70;;;;;;5113921;28;20171;-88
2022/05/17 06:12:04;;;;;;;7.17;3.60;;;19.30;64.10;;;;;;5084044;28;20210;-87
2022/05/17 06:14:29;;;;;;;6.45;3.80;;;19.30;65.30;;;;;;5087634;28;20433;-87
2022/05/17 06:16:57;;;;;;;8.33;3.33;;;19.20;65.50;;;;;;5088159;28;20203;-87
2022/05/17 06:19:24;;;;;;;8.73;3.63;;;19.30;65.20;;;;;;5084645;28;20414;-87
2022/05/17 06:21:50;;;;;;;8.80;3.90;;;19.40;67.00;;;;;;5076945;28;20184;-87
2022/05/17 06:24:17;;;;;;;11.32;4.43;;;19.40;67.30;;;;;;5079102;28;20172;-88
2022/05/17 06:26:43;;;;;;;9.45;5.07;;;19.40;67.70;;;;;;5068740;28;20328;-89
2022/05/17 06:29:09;;;;;;;13.13;5.18;;;19.20;68.40;;;;;;5056982;28;20660;-88
2022/05/17 06:31:35;;;;;;;8.80;4.93;;;19.10;71.80;;;;;;5058365;28;20189;-88
2022/05/17 06:34:01;;;;;;;9.63;5.07;;;18.90;73.20;;;;;;5076064;28;20177;-88
2022/05/17 06:36:26;;;;;;;10.23;4.20;;;18.80;75.40;;;;;;5058734;28;20543;-88
2022/05/17 06:38:53;;;;;;;13.83;5.33;;;18.60;77.70;;;;;;5072088;28;20811;-88
2022/05/17 06:41:18;;;;;;;9.27;4.38;;;18.60;79.80;;;;;;5080050;28;20210;-88
2022/05/17 06:43:44;;;;;;;12.40;4.90;;;18.60;82.00;;;;;;5062851;28;20176;-88
2022/05/17 06:46:10;;;;;;;10.53;5.03;;;18.50;82.10;;;;;;5060289;28;20200;-87
2022/05/17 06:48:35;;;;;;;14.93;5.50;;;18.30;82.30;;;;;;5060085;28;20172;-88
2022/05/17 06:51:20;;;;;;;11.33;6.27;;;18.10;84.40;;;;;;5061723;28;20199;-87
2022/05/17 06:53:46;;;;;;;11.95;6.05;;;17.80;87.20;;;;;;5061618;28;20282;-88
2022/05/17 06:56:12;;;;;;;11.35;4.90;;;17.50;88.40;;;;;;5064450;28;20211;-88
2022/05/17 06:58:38;;;;;;;10.80;6.03;;;17.40;89.90;;;;;;5082688;28;20481;-87
2022/05/17 07:01:04;;;;;;;11.98;5.82;;;17.30;90.80;;;;;;5072930;28;20212;-87
2022/05/17 07:03:30;;;;;;;11.73;5.73;;;17.30;91.80;;;;;;5082590;28;20183;-88
2022/05/17 07:05:56;;;;;;;13.93;6.10;;;17.20;91.50;;;;;;5082754;28;20164;-91
2022/05/17 07:08:22;;;;;;;11.67;5.73;;;17.30;91.60;;;;;;5074760;28;20220;-88
2022/05/17 07:13:32;;;;;;;11.25;5.20;;;17.30;91.30;;;;;;5086982;28;20187;-88
2022/05/17 07:15:59;;;;;;;10.00;5.20;;;17.40;91.50;;;;;;5091524;28;20184;-88
2022/05/17 07:18:28;;;;;;;15.05;5.75;;;17.30;91.30;;;;;;5082166;28;20254;-88
2022/05/17 07:21:13;;;;;;;8.75;5.70;;;17.30;91.50;;;;;;5064160;28;20207;-87
2022/05/17 07:23:40;;;;;;;9.32;6.10;;;17.20;91.30;;;;;;5061677;28;20172;-88
2022/05/17 07:26:08;;;;;;;8.98;5.20;;;17.20;91.20;;;;;;5061689;28;20552;-89
2022/05/17 07:28:43;;;;;;;10.77;5.88;;;17.30;91.40;;;;;;5059266;28;20267;-88
2022/05/17 07:31:09;;;;;;;9.30;5.65;;;17.40;91.70;;;;;;5078582;28;20179;-88
2022/05/17 07:33:35;;;;;;;14.30;6.35;;;17.50;90.60;;;;;;5079341;28;20270;-88
2022/05/17 07:36:02;;;;;;;12.65;5.82;;;17.60;89.60;;;;;;5079317;28;20215;-88
2022/05/17 07:38:28;;;;;;;8.52;7.28;;;17.80;89.20;;;;;;5097604;28;20199;-88
2022/05/17 07:40:54;;;;;;;11.93;6.25;;;18.00;88.20;;;;;;5079859;28;20204;-88
2022/05/17 07:43:20;;;;;;;10.57;5.70;;;18.10;85.90;;;;;;5077172;28;20553;-88
2022/05/17 07:45:49;;;;;;;8.20;6.50;;;18.20;85.70;;;;;;5069799;28;20444;-87
2022/05/17 07:48:21;;;;;;;9.80;6.00;;;18.30;84.80;;;;;;5100878;28;20200;-88
2022/05/17 07:50:47;;;;;;;6.88;4.97;;;18.40;83.70;;;;;;5083981;28;20222;-87
2022/05/17 07:53:14;;;;;;;8.25;5.15;;;18.50;83.80;;;;;;5068895;28;20181;-88
2022/05/17 07:55:41;;;;;;;6.28;5.30;;;18.60;83.00;;;;;;5103889;28;20258;-88
2022/05/17 07:58:08;;;;;;;9.98;5.60;;;18.80;82.60;;;;;;5083607;28;20203;-87
2022/05/17 08:00:34;;;;;;;11.65;5.00;;;18.90;82.00;;;;;;5081245;28;20698;-89
2022/05/17 08:03:00;;;;;;;8.40;5.30;;;18.90;81.40;;;;;;5062527;28;20190;-88
2022/05/17 08:05:28;;;;;;;9.32;5.68;;;19.00;80.20;;;;;;5075233;28;20179;-88
2022/05/17 08:07:54;;;;;;;9.07;5.00;;;19.10;79.70;;;;;;5042586;28;20216;-89
2022/05/17 08:10:21;;;;;;;10.13;5.68;;;19.10;79.70;;;;;;5078886;28;20219;-89
2022/05/17 08:12:47;;;;;;;10.88;5.78;;;19.30;79.70;;;;;;5080243;28;20188;-88
2022/05/17 08:15:14;;;;;;;6.28;4.53;;;19.30;79.60;;;;;;5062596;28;20190;-88
2022/05/17 08:17:40;;;;;;;12.80;5.65;;;19.40;79.30;;;;;;5078704;28;20857;-87
2022/05/17 08:20:09;;;;;;;8.20;5.07;;;19.50;79.30;;;;;;5078714;28;20294;-88
2022/05/17 08:22:41;;;;;;;11.13;5.65;;;19.60;77.60;;;;;;5068191;28;20419;-88
2022/05/17 08:27:55;;;;;;;7.78;5.15;;;19.70;77.40;;;;;;5077195;28;20208;-87
2022/05/17 08:30:23;;;;;;;9.30;5.00;;;19.80;77.60;;;;;;5096345;28;20184;-88
2022/05/17 08:36:04;;;;;;;7.40;5.68;;;20.10;74.90;;;;;;5084913;28;20187;-87
2022/05/17 08:38:38;;;;;;;6.53;4.95;;;20.10;73.70;;;;;;5076967;28;20189;-87
2022/05/17 08:41:12;;;;;;;9.20;5.63;;;20.20;74.10;;;;;;5068896;28;20249;-87
2022/05/17 08:43:59;;;;;;;8.75;5.28;;;20.30;74.20;;;;;;5059758;28;20640;-87
2022/05/17 08:46:53;;;;;;;8.38;5.85;;;20.40;74.50;;;;;;5058142;28;20160;-87
2022/05/17 08:49:40;;;;;;;9.87;5.33;;;20.50;74.30;;;;;;5076306;28;20172;-88
2022/05/17 08:52:07;;;;;;;8.97;5.23;;;20.50;73.80;;;;;;5082736;28;20418;-88
2022/05/17 08:54:38;;;;;;;7.73;5.73;;;20.60;73.00;;;;;;5069609;28;20435;-87
2022/05/17 08:57:32;;;;;;;6.87;5.83;;;20.70;73.60;;;;;;5073958;28;20435;-87
2022/05/17 09:00:10;;;;;;;8.10;5.03;;;20.70;73.00;;;;;;5063610;28;20466;-87
2022/05/17 09:02:44;;;;;;;9.77;6.30;;;20.90;72.50;;;;;;5078506;28;20406;-87
2022/05/17 09:05:45;;;;;;;9.37;5.50;;;21.10;72.10;;;;;;5064335;28;20419;-87
2022/05/17 09:08:50;;;;;;;9.30;6.20;;;21.30;70.80;;;;;;5089800;28;20464;-87
2022/05/17 09:11:23;;;;;;;7.67;6.00;;;21.30;70.00;;;;;;5097150;28;20444;-89
2022/05/17 09:13:54;;;;;;;9.13;5.90;;;21.30;69.90;;;;;;5081257;28;20422;-86
2022/05/17 09:16:23;;;;;;;6.40;5.63;;;21.30;70.20;;;;;;5059039;28;20513;-86
2022/05/17 09:18:50;;;;;;;10.50;5.93;;;21.20;69.20;;;;;;5076260;28;20483;-89
2022/05/17 09:21:37;;;;;;;8.43;5.77;;;21.20;69.40;;;;;;5057278;28;20465;-88
2022/05/17 09:24:37;;;;;;;7.13;5.73;;;21.20;70.20;;;;;;5057226;28;20432;-86
2022/05/17 09:27:24;;;;;;;6.90;6.20;;;21.20;69.30;;;;;;5058130;28;20470;-86
2022/05/17 09:29:53;;;;;;;8.77;5.70;;;21.30;68.90;;;;;;5058919;28;20413;-88
2022/05/17 09:32:30;;;;;;;8.37;6.23;;;21.40;69.00;;;;;;5076241;28;20601;-89
2022/05/17 09:35:03;;;;;;;7.87;6.23;;;21.50;68.70;;;;;;5084711;28;20449;-89
2022/05/17 09:37:37;;;;;;;11.33;6.10;;;21.60;67.50;;;;;;5068326;28;20457;-90
2022/05/17 09:40:08;;;;;;;13.07;6.43;;;21.60;68.00;;;;;;5072869;28;20453;-90
2022/05/17 09:42:57;;;;;;;7.83;6.13;;;21.70;68.00;;;;;;5080256;28;20444;-90
2022/05/17 09:46:06;;;;;;;11.30;6.13;;;21.90;67.20;;;;;;5050839;28;20836;-90
2022/05/17 09:54:38;;;;;;;12.97;7.00;;;22.60;63.30;;;;;;5095295;28;20413;-89
2022/05/17 09:57:14;;;;;;;10.67;6.80;;;22.80;62.80;;;;;;5065856;28;21008;-89
2022/05/17 09:59:41;;;;;;;10.60;6.50;;;22.90;63.00;;;;;;5066218;28;20492;-89
2022/05/17 10:02:28;;;;;;;7.73;6.90;;;23.10;62.40;;;;;;5071791;28;20433;-90
2022/05/17 10:04:58;;;;;;;8.20;6.20;;;23.40;61.50;;;;;;5074696;28;20431;-90
2022/05/17 10:07:28;;;;;;;10.20;6.70;;;23.60;60.60;;;;;;5073359;28;20541;-90
2022/05/17 10:09:53;;;;;;;9.37;6.80;;;23.80;59.80;;;;;;5058690;28;20420;-90
2022/05/17 10:12:30;;;;;;;11.27;7.57;;;24.10;58.70;;;;;;5068627;28;20773;-90
2022/05/17 10:15:02;;;;;;;10.87;6.73;;;24.20;57.60;;;;;;5096544;28;20585;-90
2022/05/17 10:17:43;;;;;;;10.53;7.00;;;24.20;56.80;;;;;;5074531;28;20445;-90
2022/05/17 10:20:17;;;;;;;9.37;6.60;;;24.20;57.30;;;;;;5061176;28;20488;-89
2022/05/17 10:23:01;;;;;;;9.50;7.30;;;24.40;57.50;;;;;;5076305;28;20423;-90
2022/05/17 10:25:45;;;;;;;12.97;7.53;;;24.50;57.00;;;;;;5084881;28;20421;-90
2022/05/17 10:28:22;;;;;;;12.53;8.60;;;24.60;56.10;;;;;;5065542;28;20946;-89
2022/05/17 10:31:11;;;;;;;10.40;7.37;;;24.60;55.80;;;;;;5062231;28;20426;-90
2022/05/17 10:33:54;;;;;;;11.20;8.77;;;24.50;57.00;;;;;;5074654;28;20559;-90
2022/05/17 10:36:27;;;;;;;13.40;8.20;;;24.40;56.50;;;;;;5091754;28;20462;-90
2022/05/17 10:39:20;;;;;;;9.60;7.57;;;24.20;57.50;;;;;;5086374;28;20693;-90
2022/05/17 10:41:46;;;;;;;10.80;9.67;;;24.20;58.70;;;;;;5057813;28;20450;-90
2022/05/17 10:44:17;;;;;;;15.77;9.83;;;24.10;58.50;;;;;;5062029;28;20894;-90
2022/05/17 10:46:48;;;;;;;11.73;9.40;;;24.10;58.70;;;;;;5067993;28;20419;-90
2022/05/17 10:49:22;;;;;;;12.57;8.60;;;24.00;59.00;;;;;;5098102;28;20424;-89
2022/05/17 10:52:13;;;;;;;10.93;9.07;;;24.00;58.90;;;;;;5081030;28;20506;-88
2022/05/17 10:54:44;;;;;;;14.37;8.77;;;24.00;59.50;;;;;;5085018;28;20479;-89
2022/05/17 10:57:53;;;;;;;10.10;8.73;;;24.10;59.70;;;;;;5096932;28;21267;-89
2022/05/17 11:00:25;;;;;;;20.63;9.97;;;24.10;59.40;;;;;;5085195;28;20494;-89
2022/05/17 11:03:28;;;;;;;10.87;8.60;;;24.10;59.60;;;;;;5071715;28;20902;-89
2022/05/17 11:06:26;;;;;;;11.03;8.40;;;24.20;59.80;;;;;;5079023;28;20410;-87
2022/05/17 11:09:16;;;;;;;11.80;7.40;;;24.30;59.60;;;;;;5076516;28;20940;-87
2022/05/17 11:12:09;;;;;;;15.53;9.10;;;24.40;59.30;;;;;;5098425;28;20409;-90
2022/05/17 11:15:10;;;;;;;13.70;8.10;;;24.40;59.10;;;;;;5070001;28;20411;-89
2022/05/17 11:17:51;;;;;;;13.10;10.20;;;24.50;59.00;;;;;;5065944;28;20470;-89
2022/05/17 11:20:29;;;;;;;10.10;8.77;;;24.60;58.10;;;;;;5079757;28;20449;-89
2022/05/17 11:23:05;;;;;;;11.97;10.30;;;24.50;58.20;;;;;;5078828;28;20426;-90
2022/05/17 11:25:56;;;;;;;10.97;9.30;;;24.60;58.70;;;;;;5063103;28;20924;-89
2022/05/17 11:28:36;;;;;;;8.57;7.60;;;24.70;57.70;;;;;;5060782;28;20521;-89
2022/05/17 11:31:20;;;;;;;14.30;8.37;;;24.80;57.50;;;;;;5069275;28;20792;-87
2022/05/17 11:33:46;;;;;;;9.40;8.47;;;25.00;57.10;;;;;;5088310;28;20417;-87
2022/05/17 11:36:33;;;;;;;11.93;10.53;;;25.20;56.20;;;;;;5074161;28;20511;-87
2022/05/17 11:39:00;;;;;;;11.23;10.07;;;25.30;56.00;;;;;;5089712;28;20477;-88
2022/05/17 11:41:42;;;;;;;10.00;8.30;;;25.40;56.00;;;;;;5060171;28;20459;-88
2022/05/17 11:44:12;;;;;;;10.47;8.10;;;25.50;56.00;;;;;;5099038;28;20422;-88
2022/05/17 11:46:54;;;;;;;17.43;8.80;;;25.70;55.40;;;;;;5069365;28;20782;-88
2022/05/17 11:49:26;;;;;;;9.47;7.30;;;25.90;54.60;;;;;;5076379;28;20427;-88
2022/05/17 11:51:59;;;;;;;10.57;7.53;;;25.90;53.80;;;;;;5070057;28;20511;-89
2022/05/17 11:54:44;;;;;;;11.97;7.37;;;26.00;54.30;;;;;;5069439;28;20417;-88
2022/05/17 11:57:33;;;;;;;7.20;6.50;;;25.90;54.10;;;;;;5075957;28;20526;-88
2022/05/17 12:00:22;;;;;;;9.70;7.20;;;26.00;54.50;;;;;;5084148;28;20443;-89
2022/05/17 12:02:53;;;;;;;12.10;7.80;;;25.90;53.60;;;;;;5072223;28;20425;-88
2022/05/17 12:05:37;;;;;;;10.67;6.80;;;25.80;54.10;;;;;;5079540;28;20457;-89
2022/05/17 12:08:39;;;;;;;8.80;6.70;;;26.00;54.40;;;;;;5078010;28;20432;-88
2022/05/17 12:11:11;;;;;;;7.67;5.70;;;26.10;54.30;;;;;;5075140;28;20428;-89
2022/05/17 12:13:49;;;;;;;5.90;5.30;;;26.20;53.40;;;;;;5062423;28;20427;-89
2022/05/17 12:16:22;;;;;;;5.97;5.30;;;26.30;53.40;;;;;;5070751;28;20446;-88
2022/05/17 12:18:48;;;;;;;7.97;6.20;;;26.40;54.30;;;;;;5081656;28;20420;-88
2022/05/17 12:21:19;;;;;;;8.10;6.40;;;26.50;53.20;;;;;;5070880;28;20878;-89
2022/05/17 12:24:04;;;;;;;6.77;5.30;;;26.70;52.30;;;;;;5073413;28;20169;-88
2022/05/17 12:26:51;;;;;;;5.20;4.30;;;26.90;50.70;;;;;;5059346;28;20504;-89
2022/05/17 12:32:10;;;;;;;4.10;3.30;;;27.10;47.80;;;;;;5090110;28;20428;-90
2022/05/17 12:34:40;;;;;;;5.57;4.17;;;27.10;44.30;;;;;;5086883;28;20423;-91
2022/05/17 12:37:16;;;;;;;7.03;3.17;;;27.10;44.40;;;;;;5085440;28;20567;-88
2022/05/17 12:43:02;;;;;;;5.60;2.03;;;26.80;44.20;;;;;;5082376;28;20435;-88
2022/05/17 12:45:38;;;;;;;5.30;1.77;;;26.90;41.50;;;;;;5060439;28;20447;-90
2022/05/17 12:48:17;;;;;;;5.93;2.07;;;26.80;40.00;;;;;;5081861;28;20610;-90
2022/05/17 12:50:51;;;;;;;3.20;1.87;;;26.70;39.30;;;;;;5098788;28;20453;-90
2022/05/17 12:53:24;;;;;;;3.40;2.00;;;26.60;38.50;;;;;;5083843;28;20472;-90
2022/05/17 12:56:16;;;;;;;4.67;2.33;;;26.60;40.60;;;;;;5082255;28;20395;-90
2022/05/17 12:58:56;;;;;;;1.87;1.60;;;26.70;40.70;;;;;;5041406;28;20427;-90
2022/05/17 13:01:35;;;;;;;3.67;1.93;;;26.90;37.10;;;;;;5094053;28;20539;-90
2022/05/17 13:04:13;;;;;;;4.83;2.07;;;26.70;37.50;;;;;;5095626;28;20515;-90
2022/05/17 13:06:47;;;;;;;3.60;1.70;;;26.70;37.80;;;;;;5091604;28;20445;-90
2022/05/17 13:09:23;;;;;;;3.77;2.30;;;26.50;38.00;;;;;;5078812;28;20455;-89
2022/05/17 13:11:52;;;;;;;2.83;1.80;;;26.70;35.90;;;;;;5068559;28;20426;-90
2022/05/17 13:14:48;;;;;;;2.90;2.00;;;26.90;35.70;;;;;;5090099;28;20444;-90
2022/05/17 13:17:24;;;;;;;3.53;2.50;;;26.80;37.20;;;;;;5072737;28;20446;-90
2022/05/17 13:19:54;;;;;;;3.97;2.30;;;26.70;38.10;;;;;;5065423;28;20469;-90
2022/05/17 13:22:22;;;;;;;3.60;2.00;;;26.80;37.20;;;;;;5089354;28;20504;-90
2022/05/17 13:24:50;;;;;;;6.67;2.20;;;27.10;34.70;;;;;;5063024;28;20450;-90
2022/05/17 13:27:30;;;;;;;3.20;1.70;;;27.40;33.20;;;;;;5081687;28;20445;-89
2022/05/17 13:30:05;;;;;;;4.20;1.90;;;27.50;34.00;;;;;;5091360;28;20439;-88